sensor_id;sensor_type;location;lat;lon;timestamp;temperature;humidity
71184;DHT22;58887;51.980;4.464;2023-02-15T00:01:46;3.48;82.21
71184;DHT22;58887;51.980;4.464;2023-02-15T00:04:13;3.43;82.15
71184;DHT22;58887;51.980;4.464;2023-02-15T00:06:40;3.43;82.45
71184;DHT22;58887;51.980;4.464;2023-02-15T00:09:06;3.47;82.71
71184;DHT22;58887;51.980;4.464;2023-02-15T00:11:32;3.47;82.45
71184;DHT22;58887;51.980;4.464;2023-02-15T00:16:44;3.34;82.32
71184;DHT22;58887;51.980;4.464;2023-02-15T00:19:11;3.36;82.57
71184;DHT22;58887;51.980;4.464;2023-02-15T00:21:39;3.34;82.62
71184;DHT22;58887;51.980;4.464;2023-02-15T00:24:07;3.33;82.42
71184;DHT22;58887;51.980;4.464;2023-02-15T00:26:35;3.24;82.42
71184;DHT22;58887;51.980;4.464;2023-02-15T00:29:01;3.20;82.36
71184;DHT22;58887;51.980;4.464;2023-02-15T00:31:28;3.15;82.27
71184;DHT22;58887;51.980;4.464;2023-02-15T00:34:20;3.12;82.36
71184;DHT22;58887;51.980;4.464;2023-02-15T00:36:46;3.13;82.71
71184;DHT22;58887;51.980;4.464;2023-02-15T00:39:12;3.13;82.57
71184;DHT22;58887;51.980;4.464;2023-02-15T00:41:39;3.15;82.42
71184;DHT22;58887;51.980;4.464;2023-02-15T00:44:06;3.12;82.47
71184;DHT22;58887;51.980;4.464;2023-02-15T00:46:32;3.13;82.73
71184;DHT22;58887;51.980;4.464;2023-02-15T00:48:58;3.09;82.53
71184;DHT22;58887;51.980;4.464;2023-02-15T00:51:25;3.10;82.56
71184;DHT22;58887;51.980;4.464;2023-02-15T00:53:51;3.12;82.39
71184;DHT22;58887;51.980;4.464;2023-02-15T00:56:16;3.05;82.43
71184;DHT22;58887;51.980;4.464;2023-02-15T00:58:42;3.13;82.84
71184;DHT22;58887;51.980;4.464;2023-02-15T01:01:14;3.17;82.93
71184;DHT22;58887;51.980;4.464;2023-02-15T01:03:41;3.24;82.95
71184;DHT22;58887;51.980;4.464;2023-02-15T01:06:07;3.37;83.30
71184;DHT22;58887;51.980;4.464;2023-02-15T01:08:34;3.54;83.66
71184;DHT22;58887;51.980;4.464;2023-02-15T01:11:20;3.68;83.69
71184;DHT22;58887;51.980;4.464;2023-02-15T01:13:50;3.77;83.54
71184;DHT22;58887;51.980;4.464;2023-02-15T01:16:16;3.78;83.48
71184;DHT22;58887;51.980;4.464;2023-02-15T01:18:42;3.81;83.34
71184;DHT22;58887;51.980;4.464;2023-02-15T01:21:16;3.78;83.19
71184;DHT22;58887;51.980;4.464;2023-02-15T01:23:42;3.84;83.47
71184;DHT22;58887;51.980;4.464;2023-02-15T01:26:09;3.79;83.45
71184;DHT22;58887;51.980;4.464;2023-02-15T01:28:34;3.77;83.30
71184;DHT22;58887;51.980;4.464;2023-02-15T01:31:08;3.68;83.11
71184;DHT22;58887;51.980;4.464;2023-02-15T01:33:35;3.61;83.20
71184;DHT22;58887;51.980;4.464;2023-02-15T01:36:02;3.56;83.17
71184;DHT22;58887;51.980;4.464;2023-02-15T01:38:28;3.44;82.86
71184;DHT22;58887;51.980;4.464;2023-02-15T01:40:54;3.38;83.05
71184;DHT22;58887;51.980;4.464;2023-02-15T01:43:42;3.37;83.19
71184;DHT22;58887;51.980;4.464;2023-02-15T01:46:09;3.36;83.29
71184;DHT22;58887;51.980;4.464;2023-02-15T01:48:44;3.44;83.39
71184;DHT22;58887;51.980;4.464;2023-02-15T01:51:14;3.38;83.43
71184;DHT22;58887;51.980;4.464;2023-02-15T01:53:49;3.33;83.33
71184;DHT22;58887;51.980;4.464;2023-02-15T01:56:23;3.30;83.49
71184;DHT22;58887;51.980;4.464;2023-02-15T01:58:53;3.28;83.37
71184;DHT22;58887;51.980;4.464;2023-02-15T02:01:22;3.26;83.26
71184;DHT22;58887;51.980;4.464;2023-02-15T02:04:07;3.12;82.87
71184;DHT22;58887;51.980;4.464;2023-02-15T02:06:36;3.09;83.09
71184;DHT22;58887;51.980;4.464;2023-02-15T02:09:03;3.03;82.91
71184;DHT22;58887;51.980;4.464;2023-02-15T02:11:29;2.97;83.00
71184;DHT22;58887;51.980;4.464;2023-02-15T02:13:55;2.97;83.00
71184;DHT22;58887;51.980;4.464;2023-02-15T02:16:52;2.97;83.21
71184;DHT22;58887;51.980;4.464;2023-02-15T02:29:03;2.85;83.28
71184;DHT22;58887;51.980;4.464;2023-02-15T02:34:43;2.79;83.23
71184;DHT22;58887;51.980;4.464;2023-02-15T02:42:28;2.62;83.12
71184;DHT22;58887;51.980;4.464;2023-02-15T02:47:55;2.66;83.19
71184;DHT22;58887;51.980;4.464;2023-02-15T02:50:25;2.71;83.16
71184;DHT22;58887;51.980;4.464;2023-02-15T02:52:54;2.69;83.34
71184;DHT22;58887;51.980;4.464;2023-02-15T03:03:35;2.64;83.01
71184;DHT22;58887;51.980;4.464;2023-02-15T03:06:09;2.61;83.06
71184;DHT22;58887;51.980;4.464;2023-02-15T03:08:46;2.57;83.18
71184;DHT22;58887;51.980;4.464;2023-02-15T03:11:13;2.49;82.92
71184;DHT22;58887;51.980;4.464;2023-02-15T03:13:39;2.44;83.05
71184;DHT22;58887;51.980;4.464;2023-02-15T03:16:08;2.40;83.11
71184;DHT22;58887;51.980;4.464;2023-02-15T03:19:09;2.42;83.21
71184;DHT22;58887;51.980;4.464;2023-02-15T03:21:49;2.45;83.33
71184;DHT22;58887;51.980;4.464;2023-02-15T03:24:36;2.51;83.35
71184;DHT22;58887;51.980;4.464;2023-02-15T03:27:07;2.49;83.29
71184;DHT22;58887;51.980;4.464;2023-02-15T03:29:34;2.48;83.28
71184;DHT22;58887;51.980;4.464;2023-02-15T03:32:07;2.45;83.11
71184;DHT22;58887;51.980;4.464;2023-02-15T03:34:34;2.42;83.05
71184;DHT22;58887;51.980;4.464;2023-02-15T03:37:16;2.41;83.21
71184;DHT22;58887;51.980;4.464;2023-02-15T03:39:58;2.40;83.21
71184;DHT22;58887;51.980;4.464;2023-02-15T03:42:51;2.38;83.09
71184;DHT22;58887;51.980;4.464;2023-02-15T03:45:25;2.33;83.04
71184;DHT22;58887;51.980;4.464;2023-02-15T03:47:56;2.33;83.10
71184;DHT22;58887;51.980;4.464;2023-02-15T03:50:27;2.34;83.19
71184;DHT22;58887;51.980;4.464;2023-02-15T03:53:17;2.36;83.11
71184;DHT22;58887;51.980;4.464;2023-02-15T03:55:53;2.37;83.25
71184;DHT22;58887;51.980;4.464;2023-02-15T03:58:19;2.40;83.34
71184;DHT22;58887;51.980;4.464;2023-02-15T04:01:11;2.33;83.04
71184;DHT22;58887;51.980;4.464;2023-02-15T04:04:12;2.30;83.01
71184;DHT22;58887;51.980;4.464;2023-02-15T04:06:40;2.37;83.17
71184;DHT22;58887;51.980;4.464;2023-02-15T04:09:06;2.37;83.16
71184;DHT22;58887;51.980;4.464;2023-02-15T04:11:50;2.49;83.69
71184;DHT22;58887;51.980;4.464;2023-02-15T04:14:15;2.59;83.76
71184;DHT22;58887;51.980;4.464;2023-02-15T04:16:59;2.69;83.70
71184;DHT22;58887;51.980;4.464;2023-02-15T04:19:25;2.69;83.46
71184;DHT22;58887;51.980;4.464;2023-02-15T04:22:09;2.58;83.23
71184;DHT22;58887;51.980;4.464;2023-02-15T04:24:53;2.51;83.34
71184;DHT22;58887;51.980;4.464;2023-02-15T04:27:59;2.47;83.28
71184;DHT22;58887;51.980;4.464;2023-02-15T04:30:25;2.51;83.53
71184;DHT22;58887;51.980;4.464;2023-02-15T04:32:54;2.59;83.58
71184;DHT22;58887;51.980;4.464;2023-02-15T04:35:20;2.66;83.67
71184;DHT22;58887;51.980;4.464;2023-02-15T04:37:45;2.64;83.42
71184;DHT22;58887;51.980;4.464;2023-02-15T04:40:13;2.68;83.58
71184;DHT22;58887;51.980;4.464;2023-02-15T04:42:39;2.65;83.57
71184;DHT22;58887;51.980;4.464;2023-02-15T04:45:05;2.68;83.75
71184;DHT22;58887;51.980;4.464;2023-02-15T04:47:31;2.79;83.96
71184;DHT22;58887;51.980;4.464;2023-02-15T04:49:57;2.95;84.25
71184;DHT22;58887;51.980;4.464;2023-02-15T04:52:22;3.19;84.57
71184;DHT22;58887;51.980;4.464;2023-02-15T04:54:48;3.24;84.24
71184;DHT22;58887;51.980;4.464;2023-02-15T04:57:14;3.22;84.09
71184;DHT22;58887;51.980;4.464;2023-02-15T04:59:40;3.27;84.27
71184;DHT22;58887;51.980;4.464;2023-02-15T05:02:06;3.27;84.06
71184;DHT22;58887;51.980;4.464;2023-02-15T05:04:31;3.17;83.74
71184;DHT22;58887;51.980;4.464;2023-02-15T05:06:57;3.02;83.57
71184;DHT22;58887;51.980;4.464;2023-02-15T05:09:22;2.91;83.50
71184;DHT22;58887;51.980;4.464;2023-02-15T05:11:48;2.79;83.43
71184;DHT22;58887;51.980;4.464;2023-02-15T05:14:13;2.76;83.39
71184;DHT22;58887;51.980;4.464;2023-02-15T05:16:39;2.76;83.33
71184;DHT22;58887;51.980;4.464;2023-02-15T05:19:04;2.64;83.26
71184;DHT22;58887;51.980;4.464;2023-02-15T05:21:31;2.59;83.30
71184;DHT22;58887;51.980;4.464;2023-02-15T05:23:57;2.49;83.37
71184;DHT22;58887;51.980;4.464;2023-02-15T05:26:24;2.45;83.66
71184;DHT22;58887;51.980;4.464;2023-02-15T05:29:09;2.48;83.61
71184;DHT22;58887;51.980;4.464;2023-02-15T05:31:35;2.48;83.57
71184;DHT22;58887;51.980;4.464;2023-02-15T05:34:01;2.40;83.51
71184;DHT22;58887;51.980;4.464;2023-02-15T05:36:28;2.38;83.74
71184;DHT22;58887;51.980;4.464;2023-02-15T05:38:54;2.37;83.73
71184;DHT22;58887;51.980;4.464;2023-02-15T05:41:19;2.31;83.54
71184;DHT22;58887;51.980;4.464;2023-02-15T05:43:45;2.28;83.45
71184;DHT22;58887;51.980;4.464;2023-02-15T05:46:11;2.28;83.57
71184;DHT22;58887;51.980;4.464;2023-02-15T05:48:37;2.20;83.51
71184;DHT22;58887;51.980;4.464;2023-02-15T05:51:13;2.23;83.70
71184;DHT22;58887;51.980;4.464;2023-02-15T05:53:40;2.21;83.66
71184;DHT22;58887;51.980;4.464;2023-02-15T05:56:09;2.21;83.81
71184;DHT22;58887;51.980;4.464;2023-02-15T05:58:39;2.27;83.79
71184;DHT22;58887;51.980;4.464;2023-02-15T06:01:13;2.26;83.78
71184;DHT22;58887;51.980;4.464;2023-02-15T06:03:39;2.21;83.71
71184;DHT22;58887;51.980;4.464;2023-02-15T06:06:06;2.17;83.54
71184;DHT22;58887;51.980;4.464;2023-02-15T06:08:33;2.11;83.45
71184;DHT22;58887;51.980;4.464;2023-02-15T06:10:59;2.05;83.49
71184;DHT22;58887;51.980;4.464;2023-02-15T06:13:24;2.05;83.83
71184;DHT22;58887;51.980;4.464;2023-02-15T06:15:50;2.06;83.82
71184;DHT22;58887;51.980;4.464;2023-02-15T06:18:16;2.13;83.94
71184;DHT22;58887;51.980;4.464;2023-02-15T06:20:41;2.30;84.22
71184;DHT22;58887;51.980;4.464;2023-02-15T06:23:07;2.38;83.95
71184;DHT22;58887;51.980;4.464;2023-02-15T06:25:33;2.36;83.75
71184;DHT22;58887;51.980;4.464;2023-02-15T06:27:59;2.30;83.54
71184;DHT22;58887;51.980;4.464;2023-02-15T06:30:25;2.17;83.61
71184;DHT22;58887;51.980;4.464;2023-02-15T06:32:50;2.21;83.97
71184;DHT22;58887;51.980;4.464;2023-02-15T06:35:16;2.48;84.65
71184;DHT22;58887;51.980;4.464;2023-02-15T06:37:41;2.66;84.35
71184;DHT22;58887;51.980;4.464;2023-02-15T06:40:07;2.78;84.51
71184;DHT22;58887;51.980;4.464;2023-02-15T06:42:33;2.84;84.35
71184;DHT22;58887;51.980;4.464;2023-02-15T06:44:59;2.76;84.19
71184;DHT22;58887;51.980;4.464;2023-02-15T06:47:25;2.84;84.60
71184;DHT22;58887;51.980;4.464;2023-02-15T06:49:51;3.02;84.62
71184;DHT22;58887;51.980;4.464;2023-02-15T06:52:16;3.09;84.46
71184;DHT22;58887;51.980;4.464;2023-02-15T06:54:42;3.19;84.48
71184;DHT22;58887;51.980;4.464;2023-02-15T06:57:07;3.13;84.08
71184;DHT22;58887;51.980;4.464;2023-02-15T06:59:34;2.97;83.79
71184;DHT22;58887;51.980;4.464;2023-02-15T07:02:00;2.84;83.69
71184;DHT22;58887;51.980;4.464;2023-02-15T07:04:25;2.72;83.63
71184;DHT22;58887;51.980;4.464;2023-02-15T07:06:53;2.75;84.02
71184;DHT22;58887;51.980;4.464;2023-02-15T07:09:19;2.75;84.27
71184;DHT22;58887;51.980;4.464;2023-02-15T07:11:45;2.85;84.61
71184;DHT22;58887;51.980;4.464;2023-02-15T07:14:28;2.97;84.59
71184;DHT22;58887;51.980;4.464;2023-02-15T07:16:55;3.05;84.55
71184;DHT22;58887;51.980;4.464;2023-02-15T07:19:20;3.15;84.42
71184;DHT22;58887;51.980;4.464;2023-02-15T07:21:46;3.13;84.17
71184;DHT22;58887;51.980;4.464;2023-02-15T07:24:11;3.07;83.97
71184;DHT22;58887;51.980;4.464;2023-02-15T07:26:38;3.06;84.02
71184;DHT22;58887;51.980;4.464;2023-02-15T07:29:03;3.20;84.25
71184;DHT22;58887;51.980;4.464;2023-02-15T07:31:29;3.26;84.03
71184;DHT22;58887;51.980;4.464;2023-02-15T07:33:55;3.34;84.07
71184;DHT22;58887;51.980;4.464;2023-02-15T07:36:20;3.33;83.93
71184;DHT22;58887;51.980;4.464;2023-02-15T07:38:46;3.36;83.94
71184;DHT22;58887;51.980;4.464;2023-02-15T07:41:15;3.44;84.05
71184;DHT22;58887;51.980;4.464;2023-02-15T07:43:43;3.57;84.09
71184;DHT22;58887;51.980;4.464;2023-02-15T07:46:12;3.68;84.13
71184;DHT22;58887;51.980;4.464;2023-02-15T07:48:40;3.71;84.02
71184;DHT22;58887;51.980;4.464;2023-02-15T07:51:08;3.85;84.13
71184;DHT22;58887;51.980;4.464;2023-02-15T07:53:35;3.94;84.15
71184;DHT22;58887;51.980;4.464;2023-02-15T07:56:03;4.08;84.15
71184;DHT22;58887;51.980;4.464;2023-02-15T07:58:29;4.19;84.18
71184;DHT22;58887;51.980;4.464;2023-02-15T08:01:14;4.39;84.06
71184;DHT22;58887;51.980;4.464;2023-02-15T08:03:40;4.50;83.91
71184;DHT22;58887;51.980;4.464;2023-02-15T08:06:06;4.68;84.01
71184;DHT22;58887;51.980;4.464;2023-02-15T08:08:36;4.78;83.90
71184;DHT22;58887;51.980;4.464;2023-02-15T08:11:14;4.92;83.71
71184;DHT22;58887;51.980;4.464;2023-02-15T08:14:21;5.09;83.85
71184;DHT22;58887;51.980;4.464;2023-02-15T08:16:52;5.21;83.55
71184;DHT22;58887;51.980;4.464;2023-02-15T08:19:19;5.32;83.40
71184;DHT22;58887;51.980;4.464;2023-02-15T08:21:58;5.35;82.92
71184;DHT22;58887;51.980;4.464;2023-02-15T08:24:27;5.38;83.25
71184;DHT22;58887;51.980;4.464;2023-02-15T08:26:53;5.38;83.02
71184;DHT22;58887;51.980;4.464;2023-02-15T08:29:22;5.39;83.10
71184;DHT22;58887;51.980;4.464;2023-02-15T08:31:49;5.52;83.07
71184;DHT22;58887;51.980;4.464;2023-02-15T08:34:17;5.69;82.81
71184;DHT22;58887;51.980;4.464;2023-02-15T08:36:43;5.83;82.47
71184;DHT22;58887;51.980;4.464;2023-02-15T08:39:14;6.08;82.04
71184;DHT22;58887;51.980;4.464;2023-02-15T08:41:43;6.41;81.45
71184;DHT22;58887;51.980;4.464;2023-02-15T08:44:09;6.82;80.54
71184;DHT22;58887;51.980;4.464;2023-02-15T08:46:40;7.18;79.27
71184;DHT22;58887;51.980;4.464;2023-02-15T08:49:07;7.41;78.98
71184;DHT22;58887;51.980;4.464;2023-02-15T08:51:35;7.75;79.09
71184;DHT22;58887;51.980;4.464;2023-02-15T08:54:07;7.96;77.88
71184;DHT22;58887;51.980;4.464;2023-02-15T08:56:37;7.95;76.98
71184;DHT22;58887;51.980;4.464;2023-02-15T08:59:04;8.13;77.12
71184;DHT22;58887;51.980;4.464;2023-02-15T09:01:33;8.43;76.12
71184;DHT22;58887;51.980;4.464;2023-02-15T09:04:04;8.54;75.36
71184;DHT22;58887;51.980;4.464;2023-02-15T09:06:32;9.05;74.69
71184;DHT22;58887;51.980;4.464;2023-02-15T09:08:58;9.50;71.93
71184;DHT22;58887;51.980;4.464;2023-02-15T09:11:26;9.77;72.27
71184;DHT22;58887;51.980;4.464;2023-02-15T09:13:55;9.97;70.13
71184;DHT22;58887;51.980;4.464;2023-02-15T09:16:23;10.42;68.96
71184;DHT22;58887;51.980;4.464;2023-02-15T09:18:50;10.55;67.51
71184;DHT22;58887;51.980;4.464;2023-02-15T09:21:18;10.55;68.02
71184;DHT22;58887;51.980;4.464;2023-02-15T09:23:46;10.52;68.16
71184;DHT22;58887;51.980;4.464;2023-02-15T09:26:14;9.98;68.67
71184;DHT22;58887;51.980;4.464;2023-02-15T09:28:40;10.33;68.26
71184;DHT22;58887;51.980;4.464;2023-02-15T09:31:15;10.23;67.85
71184;DHT22;58887;51.980;4.464;2023-02-15T09:33:42;10.59;66.10
71184;DHT22;58887;51.980;4.464;2023-02-15T09:36:18;10.89;66.64
71184;DHT22;58887;51.980;4.464;2023-02-15T09:38:46;11.27;65.21
71184;DHT22;58887;51.980;4.464;2023-02-15T09:41:40;11.51;63.15
71184;DHT22;58887;51.980;4.464;2023-02-15T09:50:08;11.80;61.74
71184;DHT22;58887;51.980;4.464;2023-02-15T09:53:06;11.72;62.57
71184;DHT22;58887;51.980;4.464;2023-02-15T09:56:06;11.12;62.79
71184;DHT22;58887;51.980;4.464;2023-02-15T10:02:11;10.77;64.37
71184;DHT22;58887;51.980;4.464;2023-02-15T10:11:03;11.06;63.73
71184;DHT22;58887;51.980;4.464;2023-02-15T10:14:32;10.96;63.76
71184;DHT22;58887;51.980;4.464;2023-02-15T10:17:09;11.03;64.90
71184;DHT22;58887;51.980;4.464;2023-02-15T10:25:34;10.42;65.31
71184;DHT22;58887;51.980;4.464;2023-02-15T10:28:11;10.31;65.34
71184;DHT22;58887;51.980;4.464;2023-02-15T10:30:50;10.25;65.92
71184;DHT22;58887;51.980;4.464;2023-02-15T10:33:41;10.13;66.65
71184;DHT22;58887;51.980;4.464;2023-02-15T10:36:40;9.97;67.88
71184;DHT22;58887;51.980;4.464;2023-02-15T10:42:07;10.09;66.76
71184;DHT22;58887;51.980;4.464;2023-02-15T10:44:58;10.18;67.41
71184;DHT22;58887;51.980;4.464;2023-02-15T10:47:35;10.41;66.52
71184;DHT22;58887;51.980;4.464;2023-02-15T10:50:15;10.18;66.98
71184;DHT22;58887;51.980;4.464;2023-02-15T10:56:08;10.50;66.36
71184;DHT22;58887;51.980;4.464;2023-02-15T11:04:48;11.73;61.49
71184;DHT22;58887;51.980;4.464;2023-02-15T11:07:17;12.00;61.68
71184;DHT22;58887;51.980;4.464;2023-02-15T11:09:50;12.40;60.30
71184;DHT22;58887;51.980;4.464;2023-02-15T11:12:24;12.49;60.48
71184;DHT22;58887;51.980;4.464;2023-02-15T11:15:31;12.44;60.52
71184;DHT22;58887;51.980;4.464;2023-02-15T11:18:13;12.64;59.45
71184;DHT22;58887;51.980;4.464;2023-02-15T11:21:20;12.95;58.44
71184;DHT22;58887;51.980;4.464;2023-02-15T11:23:47;13.10;57.56
71184;DHT22;58887;51.980;4.464;2023-02-15T11:26:39;12.74;58.23
71184;DHT22;58887;51.980;4.464;2023-02-15T11:29:12;12.99;59.05
71184;DHT22;58887;51.980;4.464;2023-02-15T11:31:48;12.89;58.36
71184;DHT22;58887;51.980;4.464;2023-02-15T11:34:31;13.15;58.68
71184;DHT22;58887;51.980;4.464;2023-02-15T11:37:08;13.29;57.64
71184;DHT22;58887;51.980;4.464;2023-02-15T11:39:35;13.08;58.03
71184;DHT22;58887;51.980;4.464;2023-02-15T11:42:14;12.36;59.56
71184;DHT22;58887;51.980;4.464;2023-02-15T11:45:00;12.44;60.00
71184;DHT22;58887;51.980;4.464;2023-02-15T11:47:28;13.54;57.23
71184;DHT22;58887;51.980;4.464;2023-02-15T11:49:54;13.94;56.34
71184;DHT22;58887;51.980;4.464;2023-02-15T11:52:19;14.06;55.44
71184;DHT22;58887;51.980;4.464;2023-02-15T11:54:49;13.95;55.16
71184;DHT22;58887;51.980;4.464;2023-02-15T11:59:51;14.60;54.57
71184;DHT22;58887;51.980;4.464;2023-02-15T12:02:21;14.39;53.23
71184;DHT22;58887;51.980;4.464;2023-02-15T12:05:03;14.52;53.60
71184;DHT22;58887;51.980;4.464;2023-02-15T12:07:46;14.98;52.30
71184;DHT22;58887;51.980;4.464;2023-02-15T12:10:25;14.90;52.32
71184;DHT22;58887;51.980;4.464;2023-02-15T12:13:11;15.27;51.38
71184;DHT22;58887;51.980;4.464;2023-02-15T12:15:41;15.32;51.42
71184;DHT22;58887;51.980;4.464;2023-02-15T12:21:05;17.08;48.46
71184;DHT22;58887;51.980;4.464;2023-02-15T12:23:33;16.75;47.66
71184;DHT22;58887;51.980;4.464;2023-02-15T12:25:59;16.12;49.42
71184;DHT22;58887;51.980;4.464;2023-02-15T12:28:32;16.03;49.40
71184;DHT22;58887;51.980;4.464;2023-02-15T12:31:02;15.75;50.14
71184;DHT22;58887;51.980;4.464;2023-02-15T12:33:40;15.27;51.57
71184;DHT22;58887;51.980;4.464;2023-02-15T12:36:12;15.08;52.66
71184;DHT22;58887;51.980;4.464;2023-02-15T12:38:40;15.08;52.31
71184;DHT22;58887;51.980;4.464;2023-02-15T12:41:26;14.77;53.33
71184;DHT22;58887;51.980;4.464;2023-02-15T12:44:16;14.74;53.95
71184;DHT22;58887;51.980;4.464;2023-02-15T12:49:42;14.28;55.40
71184;DHT22;58887;51.980;4.464;2023-02-15T12:54:43;13.92;56.25
71184;DHT22;58887;51.980;4.464;2023-02-15T13:00:05;13.46;57.42
71184;DHT22;58887;51.980;4.464;2023-02-15T13:07:45;13.58;56.87
71184;DHT22;58887;51.980;4.464;2023-02-15T13:10:29;13.47;57.88
71184;DHT22;58887;51.980;4.464;2023-02-15T13:12:57;13.50;57.80
71184;DHT22;58887;51.980;4.464;2023-02-15T13:15:34;13.40;58.46
71184;DHT22;58887;51.980;4.464;2023-02-15T13:18:02;13.48;58.63
71184;DHT22;58887;51.980;4.464;2023-02-15T13:20:29;13.60;57.61
71184;DHT22;58887;51.980;4.464;2023-02-15T13:23:08;13.56;57.43
71184;DHT22;58887;51.980;4.464;2023-02-15T13:25:45;13.57;57.87
71184;DHT22;58887;51.980;4.464;2023-02-15T13:28:18;13.29;58.89
71184;DHT22;58887;51.980;4.464;2023-02-15T13:30:47;13.58;58.33
71184;DHT22;58887;51.980;4.464;2023-02-15T13:33:27;13.70;58.07
71184;DHT22;58887;51.980;4.464;2023-02-15T13:39:06;13.79;57.22
71184;DHT22;58887;51.980;4.464;2023-02-15T13:49:48;14.62;54.13
71184;DHT22;58887;51.980;4.464;2023-02-15T13:54:57;14.14;55.52
71184;DHT22;58887;51.980;4.464;2023-02-15T14:03:13;14.72;55.22
71184;DHT22;58887;51.980;4.464;2023-02-15T14:21:59;14.60;55.78
71184;DHT22;58887;51.980;4.464;2023-02-15T14:24:43;14.25;55.66
71184;DHT22;58887;51.980;4.464;2023-02-15T14:30:10;14.01;55.80
71184;DHT22;58887;51.980;4.464;2023-02-15T14:33:08;13.60;56.23
71184;DHT22;58887;51.980;4.464;2023-02-15T14:35:34;13.43;56.79
71184;DHT22;58887;51.980;4.464;2023-02-15T14:41:01;13.22;57.47
71184;DHT22;58887;51.980;4.464;2023-02-15T14:48:56;13.37;57.36
71184;DHT22;58887;51.980;4.464;2023-02-15T14:59:54;13.10;58.86
71184;DHT22;58887;51.980;4.464;2023-02-15T15:10:42;12.79;61.13
71184;DHT22;58887;51.980;4.464;2023-02-15T15:15:55;12.72;61.94
71184;DHT22;58887;51.980;4.464;2023-02-15T15:18:44;12.71;62.16
71184;DHT22;58887;51.980;4.464;2023-02-15T15:21:10;12.68;62.08
71184;DHT22;58887;51.980;4.464;2023-02-15T15:23:41;12.64;62.02
71184;DHT22;58887;51.980;4.464;2023-02-15T15:39:29;12.12;63.65
71184;DHT22;58887;51.980;4.464;2023-02-15T15:50:42;11.83;65.36
71184;DHT22;58887;51.980;4.464;2023-02-15T15:53:20;11.72;65.34
71184;DHT22;58887;51.980;4.464;2023-02-15T15:55:49;11.80;65.27
71184;DHT22;58887;51.980;4.464;2023-02-15T15:58:19;11.68;66.02
71184;DHT22;58887;51.980;4.464;2023-02-15T16:01:04;11.57;66.64
71184;DHT22;58887;51.980;4.464;2023-02-15T16:03:32;11.65;66.98
71184;DHT22;58887;51.980;4.464;2023-02-15T16:05:58;11.46;67.85
71184;DHT22;58887;51.980;4.464;2023-02-15T16:10:56;11.35;68.38
71184;DHT22;58887;51.980;4.464;2023-02-15T16:13:22;11.34;68.13
71184;DHT22;58887;51.980;4.464;2023-02-15T16:15:51;11.36;68.14
71184;DHT22;58887;51.980;4.464;2023-02-15T16:18:21;11.32;68.26
71184;DHT22;58887;51.980;4.464;2023-02-15T16:20:59;11.15;68.98
71184;DHT22;58887;51.980;4.464;2023-02-15T16:26:32;11.11;69.53
71184;DHT22;58887;51.980;4.464;2023-02-15T16:29:00;11.10;69.55
71184;DHT22;58887;51.980;4.464;2023-02-15T16:31:26;11.03;69.79
71184;DHT22;58887;51.980;4.464;2023-02-15T16:33:54;11.10;69.68
71184;DHT22;58887;51.980;4.464;2023-02-15T16:36:29;11.07;69.76
71184;DHT22;58887;51.980;4.464;2023-02-15T16:41:25;10.93;70.23
71184;DHT22;58887;51.980;4.464;2023-02-15T16:43:55;10.84;70.32
71184;DHT22;58887;51.980;4.464;2023-02-15T16:46:39;10.99;70.19
71184;DHT22;58887;51.980;4.464;2023-02-15T16:49:27;10.97;69.79
71184;DHT22;58887;51.980;4.464;2023-02-15T16:52:00;11.00;69.72
71184;DHT22;58887;51.980;4.464;2023-02-15T16:54:29;11.08;69.28
71184;DHT22;58887;51.980;4.464;2023-02-15T16:56:57;10.97;69.13
71184;DHT22;58887;51.980;4.464;2023-02-15T16:59:39;10.91;69.03
71184;DHT22;58887;51.980;4.464;2023-02-15T17:02:30;10.93;68.56
71184;DHT22;58887;51.980;4.464;2023-02-15T17:08:41;10.96;67.14
71184;DHT22;58887;51.980;4.464;2023-02-15T17:10:38;10.99;66.93
71184;DHT22;58887;51.980;4.464;2023-02-15T17:13:16;10.94;66.75
71184;DHT22;58887;51.980;4.464;2023-02-15T17:21:00;10.94;66.15
71184;DHT22;58887;51.980;4.464;2023-02-15T17:23:33;11.01;65.82
71184;DHT22;58887;51.980;4.464;2023-02-15T17:26:21;10.99;65.71
71184;DHT22;58887;51.980;4.464;2023-02-15T17:28:53;10.94;66.01
71184;DHT22;58887;51.980;4.464;2023-02-15T17:31:21;10.96;65.92
71184;DHT22;58887;51.980;4.464;2023-02-15T17:33:50;10.93;65.95
71184;DHT22;58887;51.980;4.464;2023-02-15T17:36:24;10.89;65.89
71184;DHT22;58887;51.980;4.464;2023-02-15T17:41:26;10.77;66.41
71184;DHT22;58887;51.980;4.464;2023-02-15T17:43:52;10.83;66.24
71184;DHT22;58887;51.980;4.464;2023-02-15T17:46:18;10.80;66.29
71184;DHT22;58887;51.980;4.464;2023-02-15T17:48:49;10.77;66.51
71184;DHT22;58887;51.980;4.464;2023-02-15T17:51:18;10.70;66.85
71184;DHT22;58887;51.980;4.464;2023-02-15T17:53:45;10.81;66.68
71184;DHT22;58887;51.980;4.464;2023-02-15T17:56:35;10.83;66.89
71184;DHT22;58887;51.980;4.464;2023-02-15T17:59:02;10.70;67.54
71184;DHT22;58887;51.980;4.464;2023-02-15T18:01:35;10.71;67.79
71184;DHT22;58887;51.980;4.464;2023-02-15T18:04:22;10.66;67.91
71184;DHT22;58887;51.980;4.464;2023-02-15T18:07:08;10.73;67.93
71184;DHT22;58887;51.980;4.464;2023-02-15T18:09:54;10.67;68.00
71184;DHT22;58887;51.980;4.464;2023-02-15T18:12:39;10.70;68.03
71184;DHT22;58887;51.980;4.464;2023-02-15T18:15:05;10.63;68.25
71184;DHT22;58887;51.980;4.464;2023-02-15T18:17:38;10.55;68.46
71184;DHT22;58887;51.980;4.464;2023-02-15T18:20:21;10.57;68.60
71184;DHT22;58887;51.980;4.464;2023-02-15T18:22:50;10.46;69.03
71184;DHT22;58887;51.980;4.464;2023-02-15T18:25:18;10.49;69.06
71184;DHT22;58887;51.980;4.464;2023-02-15T18:27:45;10.46;69.17
71184;DHT22;58887;51.980;4.464;2023-02-15T18:30:16;10.42;69.08
71184;DHT22;58887;51.980;4.464;2023-02-15T18:32:44;10.38;69.24
71184;DHT22;58887;51.980;4.464;2023-02-15T18:35:22;10.35;69.32
71184;DHT22;58887;51.980;4.464;2023-02-15T18:37:49;10.26;69.14
71184;DHT22;58887;51.980;4.464;2023-02-15T18:40:19;10.32;68.73
71184;DHT22;58887;51.980;4.464;2023-02-15T18:42:45;10.35;68.57
71184;DHT22;58887;51.980;4.464;2023-02-15T18:45:26;10.36;68.56
71184;DHT22;58887;51.980;4.464;2023-02-15T18:47:57;10.35;68.56
71184;DHT22;58887;51.980;4.464;2023-02-15T18:50:27;10.33;68.49
71184;DHT22;58887;51.980;4.464;2023-02-15T18:52:53;10.33;68.38
71184;DHT22;58887;51.980;4.464;2023-02-15T18:55:24;10.32;68.35
71184;DHT22;58887;51.980;4.464;2023-02-15T18:57:52;10.33;68.35
71184;DHT22;58887;51.980;4.464;2023-02-15T19:00:24;10.23;68.42
71184;DHT22;58887;51.980;4.464;2023-02-15T19:02:50;10.26;68.51
71184;DHT22;58887;51.980;4.464;2023-02-15T19:05:15;10.13;68.94
71184;DHT22;58887;51.980;4.464;2023-02-15T19:07:43;10.15;68.86
71184;DHT22;58887;51.980;4.464;2023-02-15T19:10:19;10.22;68.64
71184;DHT22;58887;51.980;4.464;2023-02-15T19:12:45;10.06;68.97
71184;DHT22;58887;51.980;4.464;2023-02-15T19:15:23;10.05;69.11
71184;DHT22;58887;51.980;4.464;2023-02-15T19:17:49;10.06;69.00
71184;DHT22;58887;51.980;4.464;2023-02-15T19:20:18;9.97;69.12
71184;DHT22;58887;51.980;4.464;2023-02-15T19:22:46;9.92;69.36